Terminal Aerodrome Forecast
Issued by NWS Cleveland, OH

Home | Current Version | Previous Version | Graphics & Text | Print | Product List | Glossary On
Versions: 1 2 3 4 5 6 7 8 9 10 11 12 13 14
517
FTUS41 KCLE 251735
TAFYNG
TAF
KYNG 251735Z 2518/2618 25015G25KT P6SM BKN060
     FM260000 26008KT P6SM SCT060
     FM261300 25010KT P6SM BKN040 BKN080=

USA.gov is the U.S. government's official web portal to all federal, state and local government web resources and services.